.
WxDataArchive / Data Records for 2007-02-02
2007-02-01 February 2007 2007-02-03

Data Records for Friday, 02 February 2007

Time	Temp	Chill	HIndex	Humid	Dewpt	 Wind 	HiWind	WindDir	Rain 	Barom 
-----	----	-----	------	-----	-----	------	------	-------	-----	----- 
00:00	22.2	22.2	22.2	84	18.1	0	1	248	0.00	29.761 
00:05	22.2	22.2	22.2	84	18.1	0	1	---	0.00	29.761 
00:10	22.4	22.4	22.4	84	18.3	0	1	248	0.00	29.761 
00:15	22.4	22.4	22.4	84	18.3	0	0	---	0.00	29.761 
00:20	22.4	22.4	22.4	84	18.3	0	0	---	0.00	29.761 
00:25	22.4	22.4	22.4	84	18.3	0	0	---	0.00	29.761 
00:30	22.2	22.2	22.2	84	18.1	0	0	---	0.00	29.749 
00:35	22.2	22.2	22.2	84	18.1	0	0	---	0.00	29.749 
00:40	22.4	22.4	22.4	84	18.3	0	1	248	0.00	29.749 
00:45	22.4	22.4	22.4	84	18.3	0	1	248	0.00	29.745 
00:50	22.5	22.5	22.5	85	18.7	0	3	248	0.00	29.745 
00:55	22.7	22.7	22.7	85	18.9	1	2	248	0.00	29.745 
01:00	22.9	22.9	22.9	84	18.8	0	2	248	0.00	29.745 
01:05	23.0	23.0	23.0	84	18.9	0	2	248	0.00	29.745 
01:10	23.0	23.0	23.0	84	18.9	1	4	248	0.00	29.745 
01:15	23.2	23.2	23.2	84	19.1	1	4	248	0.00	29.746 
01:20	23.2	23.2	23.2	84	19.1	1	3	225	0.00	29.746 
01:25	23.2	23.2	23.2	84	19.1	1	4	248	0.00	29.746 
01:30	23.3	23.3	23.3	84	19.2	2	6	248	0.00	29.742 
01:35	23.3	23.3	23.3	84	19.2	1	6	248	0.00	29.742 
01:40	23.3	23.3	23.3	84	19.2	1	4	248	0.00	29.742 
01:45	23.3	23.3	23.3	84	19.2	1	3	248	0.00	29.733 
01:50	23.3	23.3	23.3	84	19.2	2	5	248	0.00	29.733 
01:55	23.3	23.3	23.3	84	19.2	1	6	248	0.00	29.733 
02:00	23.3	23.3	23.3	84	19.2	1	5	248	0.00	29.733 
02:05	23.3	23.3	23.3	84	19.2	1	3	248	0.00	29.733 
02:10	23.5	23.5	23.5	84	19.4	1	4	270	0.00	29.733 
02:15	23.5	23.5	23.5	84	19.4	1	4	248	0.00	29.728 
02:20	23.5	23.5	23.5	84	19.4	1	4	270	0.00	29.728 
02:25	23.5	23.5	23.5	84	19.4	1	5	248	0.00	29.728 
02:30	23.5	23.5	23.5	84	19.4	1	4	248	0.00	29.728 
02:35	23.5	23.5	23.5	84	19.4	1	3	248	0.00	29.728 
02:40	23.5	23.5	23.5	84	19.4	1	3	248	0.00	29.728 
02:45	23.3	23.3	23.3	84	19.2	1	3	248	0.00	29.738 
02:50	23.3	23.3	23.3	84	19.2	1	5	248	0.00	29.738 
02:55	23.3	23.3	23.3	84	19.2	1	3	248	0.00	29.738 
03:00	23.3	23.3	23.3	84	19.2	1	4	248	0.00	29.741 
03:05	23.3	23.3	23.3	85	19.5	1	4	248	0.00	29.741 
03:10	23.3	23.3	23.3	85	19.5	1	4	248	0.00	29.741 
03:15	23.3	23.3	23.3	85	19.5	2	4	248	0.00	29.733 
03:20	23.3	23.3	23.3	85	19.5	0	2	248	0.00	29.733 
03:25	23.3	23.3	23.3	86	19.7	1	2	248	0.00	29.733 
03:30	23.2	23.2	23.2	86	19.6	1	2	248	0.00	29.728 
03:35	23.2	23.2	23.2	86	19.6	2	4	248	0.00	29.728 
03:40	23.2	23.2	23.2	86	19.6	1	3	248	0.00	29.728 
03:45	23.2	23.2	23.2	86	19.6	1	5	248	0.00	29.727 
03:50	23.2	23.2	23.2	86	19.6	1	4	248	0.00	29.727 
03:55	23.2	23.2	23.2	86	19.6	1	4	225	0.00	29.727 
04:00	23.2	23.2	23.2	86	19.6	1	5	248	0.00	29.726 
04:05	23.2	23.2	23.2	86	19.6	1	5	248	0.00	29.726 
04:10	23.2	23.2	23.2	86	19.6	1	2	248	0.00	29.726 
04:15	23.2	23.2	23.2	86	19.6	1	4	248	0.00	29.716 
04:20	23.2	23.2	23.2	85	19.4	1	3	248	0.00	29.716 
04:25	23.2	23.2	23.2	86	19.6	0	1	248	0.00	29.716 
04:30	23.0	23.0	23.0	86	19.4	1	3	248	0.00	29.710 
04:35	23.0	23.0	23.0	86	19.4	1	3	248	0.00	29.710 
04:40	23.0	23.0	23.0	86	19.4	1	3	248	0.00	29.710 
04:45	22.9	22.9	22.9	85	19.1	1	4	248	0.00	29.703 
04:50	22.9	22.9	22.9	85	19.1	0	3	248	0.00	29.703 
04:55	22.9	22.9	22.9	85	19.1	1	6	248	0.00	29.703 
05:00	22.9	22.9	22.9	85	19.1	2	5	248	0.00	29.703 
05:05	22.9	22.9	22.9	85	19.1	2	6	248	0.00	29.703 
05:10	22.9	22.9	22.9	85	19.1	1	4	248	0.00	29.703 
05:15	22.9	22.9	22.9	84	18.8	2	6	248	0.00	29.698 
05:20	22.7	22.7	22.7	84	18.6	2	5	248	0.00	29.698 
05:25	22.7	22.7	22.7	84	18.6	2	7	248	0.00	29.698 
05:30	22.7	22.7	22.7	83	18.3	2	6	248	0.00	29.700 
05:35	22.5	22.5	22.5	82	17.9	1	4	248	0.00	29.700 
05:40	22.5	22.5	22.5	82	17.9	1	4	270	0.00	29.700 
05:45	22.4	22.4	22.4	81	17.5	1	4	270	0.00	29.697 
05:50	22.2	22.2	22.2	81	17.3	1	4	270	0.00	29.697 
05:55	22.2	22.2	22.2	81	17.3	1	2	248	0.00	29.697 
06:00	22.1	22.1	22.1	81	17.2	1	4	292	0.00	29.690 
06:05	22.1	22.1	22.1	82	17.5	1	3	270	0.00	29.690 
06:10	22.1	22.1	22.1	82	17.5	0	3	248	0.00	29.690 
06:15	22.1	22.1	22.1	82	17.5	1	3	248	0.00	29.692 
06:20	22.1	22.1	22.1	82	17.5	2	6	248	0.00	29.692 
06:25	21.9	21.9	21.9	81	17.0	3	7	248	0.00	29.692 
06:30	21.8	21.8	21.8	80	16.6	3	9	270	0.00	29.698 
06:35	21.4	21.4	21.4	78	15.6	3	9	248	0.00	29.698 
06:40	21.1	21.1	21.1	76	14.7	1	6	248	0.00	29.698 
06:45	21.0	21.0	21.0	75	14.3	2	6	248	0.00	29.697 
06:50	20.8	20.8	20.8	73	13.5	2	7	270	0.00	29.697 
06:55	20.5	20.5	20.5	70	12.3	2	11	248	0.00	29.697 
07:00	20.3	20.3	20.3	69	11.8	2	5	270	0.00	29.688 
07:05	20.3	20.3	20.3	70	12.1	1	6	270	0.00	29.688 
07:10	20.2	20.2	20.2	69	11.7	2	6	248	0.00	29.688 
07:15	20.0	20.0	20.0	69	11.5	1	6	248	0.00	29.686 
07:20	20.0	20.0	20.0	69	11.5	2	6	248	0.00	29.686 
07:25	19.9	19.9	19.9	68	11.1	2	7	248	0.00	29.686 
07:30	19.7	19.7	19.7	67	10.5	2	7	248	0.00	29.701 
07:35	19.5	13.6	19.5	63	9.0	4	14	270	0.00	29.701 
07:40	19.4	19.4	19.4	64	9.2	2	7	270	0.00	29.701 
07:45	19.2	19.2	19.2	66	9.7	1	5	248	0.00	29.702 
07:50	18.9	18.9	18.9	66	9.4	3	9	270	0.00	29.702 
07:55	18.8	18.8	18.8	68	10.0	2	6	270	0.00	29.702 
08:00	18.4	18.4	18.4	71	10.6	2	11	270	0.00	29.702 
08:05	18.1	18.1	18.1	71	10.3	2	6	270	0.00	29.702 
08:10	17.8	17.8	17.8	70	9.7	2	5	270	0.00	29.702 
08:15	17.5	17.5	17.5	67	8.4	2	4	270	0.00	29.705 
08:20	17.3	17.3	17.3	66	7.9	2	5	270	0.00	29.705 
08:25	17.2	17.2	17.2	65	7.5	2	7	248	0.00	29.705 
08:30	17.0	17.0	17.0	65	7.3	2	9	248	0.00	29.709 
08:35	16.9	16.9	16.9	65	7.2	2	7	248	0.00	29.709 
08:40	16.7	16.7	16.7	65	7.0	1	4	248	0.00	29.709 
08:45	16.5	16.5	16.5	63	6.1	3	11	270	0.00	29.706 
08:50	16.5	16.5	16.5	65	6.8	2	9	270	0.00	29.706 
08:55	16.4	16.4	16.4	65	6.7	2	5	270	0.00	29.706 
09:00	16.2	16.2	16.2	64	6.2	3	11	270	0.00	29.717 
09:05	15.9	15.9	15.9	64	5.9	2	5	270	0.00	29.717 
09:10	15.7	15.7	15.7	62	5.0	2	5	270	0.00	29.717 
09:15	16.1	16.1	16.1	60	4.7	3	5	270	0.00	29.714 
09:20	16.4	16.4	16.4	59	4.6	2	7	270	0.00	29.714 
09:25	16.9	16.9	16.9	60	5.4	1	3	248	0.00	29.714 
09:30	17.3	17.3	17.3	59	5.5	2	6	248	0.00	29.711 
09:35	17.2	17.2	17.2	58	5.0	2	4	248	0.00	29.711 
09:40	17.0	10.7	17.0	55	3.7	4	9	248	0.00	29.711 
09:45	17.3	17.3	17.3	57	4.7	3	10	248	0.00	29.706 
09:50	17.2	11.0	17.2	53	3.0	4	12	248	0.00	29.706 
09:55	16.5	10.2	16.5	53	2.4	4	9	270	0.00	29.706 
10:00	16.5	16.5	16.5	53	2.4	2	6	270	0.00	29.709 
10:05	16.5	16.5	16.5	54	2.8	3	6	270	0.00	29.709 
10:10	16.4	10.1	16.4	51	1.5	4	12	270	0.00	29.709 
10:15	16.5	16.5	16.5	53	2.4	2	6	270	0.00	29.720 
10:20	16.4	16.4	16.4	50	1.1	3	9	270	0.00	29.720 
10:25	16.4	16.4	16.4	52	1.9	2	7	292	0.00	29.720 
10:30	16.4	16.4	16.4	51	1.5	3	10	270	0.00	29.725 
10:35	16.7	16.7	16.7	53	2.6	2	7	270	0.00	29.725 
10:40	16.9	16.9	16.9	56	4.0	3	11	270	0.00	29.725 
10:45	16.9	16.9	16.9	58	4.7	3	10	270	0.00	29.732 
10:50	16.7	16.7	16.7	59	4.9	3	9	270	0.00	29.732 
10:55	16.7	16.7	16.7	60	5.3	3	10	270	0.00	29.732 
11:00	16.9	16.9	16.9	60	5.4	3	13	270	0.00	29.729 
11:05	16.9	16.9	16.9	60	5.4	3	12	270	0.00	29.729 
11:10	16.4	10.1	16.4	62	5.7	4	8	270	0.00	29.729 
11:15	16.5	10.2	16.5	62	5.8	4	11	270	0.00	29.740 
11:20	17.0	17.0	17.0	63	6.6	3	6	270	0.00	29.740 
11:25	17.0	10.7	17.0	63	6.6	4	12	270	0.00	29.740 
11:30	16.7	9.1	16.7	65	7.0	5	15	270	0.00	29.741 
11:35	16.5	10.2	16.5	65	6.8	4	13	270	0.00	29.741 
11:40	16.7	10.4	16.7	67	7.7	4	11	270	0.00	29.741 
11:45	17.0	10.7	17.0	66	7.6	4	14	270	0.00	29.736 
11:50	16.9	9.3	16.9	67	7.9	5	11	270	0.00	29.736 
11:55	16.9	10.6	16.9	66	7.5	4	13	270	0.00	29.736 
12:00	17.0	17.0	17.0	65	7.3	3	9	270	0.00	29.721 
12:05	17.0	10.7	17.0	64	7.0	4	11	270	0.00	29.721 
12:10	17.3	11.1	17.3	65	7.6	4	11	270	0.00	29.721 
12:15	18.0	18.0	18.0	64	7.9	3	10	270	0.00	29.722 
12:20	18.3	18.3	18.3	63	7.8	3	9	270	0.00	29.722 
12:25	18.1	12.0	18.1	62	7.3	4	7	270	0.00	29.722 
12:30	17.7	10.3	17.7	62	6.9	5	13	270	0.00	29.718 
12:35	17.8	11.7	17.8	64	7.7	4	10	270	0.00	29.718 
12:40	17.8	11.7	17.8	65	8.1	4	13	248	0.00	29.718 
12:45	18.1	18.1	18.1	64	8.0	3	12	270	0.00	29.720 
12:50	18.4	18.4	18.4	63	7.9	3	7	270	0.00	29.720 
12:55	18.4	18.4	18.4	63	7.9	3	6	270	0.00	29.720 
13:00	18.0	18.0	18.0	65	8.3	3	7	270	0.00	29.714 
13:05	18.0	18.0	18.0	64	7.9	3	7	270	0.00	29.714 
13:10	18.0	11.9	18.0	65	8.3	4	9	270	0.00	29.714 
13:15	17.3	9.8	17.3	64	7.2	5	10	270	0.00	29.715 
13:20	17.3	11.1	17.3	66	7.9	4	12	270	0.00	29.715 
13:25	17.8	17.8	17.8	66	8.4	3	10	270	0.00	29.715 
13:30	17.3	11.1	17.3	65	7.6	4	15	270	0.00	29.716 
13:35	17.2	17.2	17.2	67	8.2	3	9	270	0.00	29.716 
13:40	16.5	10.2	16.5	71	8.8	4	9	270	0.00	29.716 
13:45	16.5	10.2	16.5	69	8.1	4	11	270	0.00	29.722 
13:50	16.9	10.6	16.9	66	7.5	4	11	270	0.00	29.722 
13:55	16.9	9.3	16.9	64	6.9	5	14	270	0.00	29.722 
14:00	17.2	9.7	17.2	62	6.4	5	12	270	0.00	29.721 
14:05	17.5	11.3	17.5	59	5.6	4	13	270	0.00	29.721 
14:10	17.7	11.6	17.7	61	6.6	4	11	270	0.00	29.721 
14:15	17.8	10.4	17.8	60	6.3	5	16	270	0.00	29.724 
14:20	17.7	11.6	17.7	61	6.6	4	15	270	0.00	29.724 
14:25	17.7	10.3	17.7	60	6.2	5	13	270	0.00	29.724 
14:30	18.0	11.9	18.0	60	6.5	4	12	270	0.00	29.735 
14:35	17.7	11.6	17.7	59	5.8	4	10	270	0.00	29.735 
14:40	16.7	10.4	16.7	62	6.0	4	10	270	0.00	29.735 
14:45	16.2	9.8	16.2	64	6.2	4	13	270	0.00	29.740 
14:50	16.4	16.4	16.4	65	6.7	3	8	270	0.00	29.740 
14:55	16.4	10.1	16.4	63	6.0	4	14	270	0.00	29.740 
15:00	16.5	10.2	16.5	65	6.8	4	10	270	0.00	29.751 
15:05	15.7	9.2	15.7	71	8.0	4	10	270	0.00	29.751 
15:10	15.1	8.6	15.1	72	7.7	4	9	270	0.00	29.751 
15:15	15.1	15.1	15.1	74	8.3	3	12	270	0.00	29.759 
15:20	15.1	15.1	15.1	69	6.8	3	10	270	0.00	29.759 
15:25	15.1	8.6	15.1	68	6.5	4	10	270	0.00	29.759 
15:30	14.8	8.2	14.8	68	6.2	4	10	270	0.00	29.769 
15:35	14.8	14.8	14.8	67	5.9	3	7	270	0.00	29.769 
15:40	14.6	14.6	14.6	65	5.0	3	9	270	0.00	29.769 
15:45	14.9	8.3	14.9	61	3.9	4	14	270	0.00	29.769 
15:50	15.7	7.9	15.7	58	3.6	5	12	270	0.00	29.769 
15:55	15.9	8.2	15.9	56	3.0	5	14	270	0.00	29.769 
16:00	15.6	9.1	15.6	55	2.3	4	11	270	0.00	29.775 
16:05	15.9	9.5	15.9	56	3.0	4	10	270	0.00	29.775 
16:10	16.2	8.5	16.2	54	2.5	5	15	270	0.00	29.775 
16:15	15.9	7.1	15.9	55	2.6	6	15	270	0.00	29.781 
16:20	15.2	8.7	15.2	56	2.4	4	9	270	0.00	29.781 
16:25	15.1	5.1	15.1	54	1.5	7	16	270	0.00	29.781 
16:30	15.1	7.2	15.1	54	1.5	5	13	270	0.00	29.790 
16:35	15.2	7.3	15.2	53	1.2	5	15	270	0.00	29.790 
16:40	14.9	5.9	14.9	53	0.9	6	16	270	0.00	29.790 
16:45	14.4	4.3	14.4	53	0.4	7	16	270	0.00	29.804 
16:50	14.1	4.9	14.1	54	0.5	6	16	270	0.00	29.804 
16:55	13.8	2.7	13.8	53	-0.1	8	17	270	0.00	29.804 
17:00	13.8	5.7	13.8	53	-0.1	5	11	270	0.00	29.818 
17:05	13.5	3.2	13.5	53	-0.4	7	19	270	0.00	29.818 
17:10	13.5	6.7	13.5	54	-0.0	4	12	270	0.00	29.818 
17:15	13.1	6.2	13.1	55	0.0	4	13	270	0.00	29.823 
17:20	12.9	3.5	12.9	55	-0.2	6	17	270	0.00	29.823 
17:25	12.8	5.9	12.8	57	0.5	4	16	270	0.00	29.823 
17:30	12.4	2.9	12.4	58	0.5	6	16	270	0.00	29.838 
17:35	12.3	12.3	12.3	58	0.4	3	10	270	0.00	29.838 
17:40	12.1	3.7	12.1	58	0.2	5	11	270	0.00	29.838 
17:45	11.7	3.2	11.7	59	0.2	5	13	270	0.00	29.849 
17:50	11.6	4.5	11.6	59	0.1	4	13	270	0.00	29.849 
17:55	11.2	2.6	11.2	60	0.1	5	12	270	0.00	29.849 
18:00	11.1	3.9	11.1	61	0.3	4	12	270	0.00	29.855 
18:05	10.7	10.7	10.7	62	0.3	3	12	270	0.00	29.855 
18:10	10.5	1.8	10.5	63	0.4	5	14	248	0.00	29.855 
18:15	10.4	3.1	10.4	63	0.3	4	12	270	0.00	29.864 
18:20	10.2	10.2	10.2	64	0.5	3	13	270	0.00	29.864 
18:25	10.0	2.7	10.0	64	0.3	4	11	270	0.00	29.864 
18:30	9.9	2.5	9.9	65	0.5	4	15	270	0.00	29.875 
18:35	9.7	9.7	9.7	65	0.3	3	12	270	0.00	29.875 
18:40	9.5	2.1	9.5	66	0.5	4	11	270	0.00	29.875 
18:45	9.3	0.4	9.3	66	0.3	5	13	270	0.00	29.884 
18:50	9.2	1.7	9.2	65	-0.1	4	11	270	0.00	29.884 
18:55	9.0	9.0	9.0	65	-0.3	3	9	270	0.00	29.884 
19:00	8.8	8.8	8.8	65	-0.5	3	13	270	0.00	29.898 
19:05	8.8	-0.2	8.8	65	-0.5	5	12	270	0.00	29.898 
19:10	8.6	8.6	8.6	65	-0.7	3	10	270	0.00	29.898 
19:15	8.4	-0.6	8.4	65	-0.9	5	13	270	0.00	29.909 
19:20	8.4	0.8	8.4	64	-1.2	4	10	270	0.00	29.909 
19:25	8.3	0.7	8.3	64	-1.3	4	16	270	0.00	29.909 
19:30	8.1	8.1	8.1	64	-1.5	3	9	248	0.00	29.919 
19:35	7.9	7.9	7.9	64	-1.7	3	9	270	0.00	29.919 
19:40	7.9	-1.2	7.9	62	-2.4	5	13	270	0.00	29.919 
19:45	7.9	-1.2	7.9	62	-2.4	5	12	270	0.00	29.921 
19:50	7.7	7.7	7.7	61	-2.9	3	7	270	0.00	29.921 
19:55	7.6	7.6	7.6	60	-3.3	3	13	270	0.00	29.921 
20:00	7.6	7.6	7.6	58	-4.1	2	10	270	0.00	29.916 
20:05	7.4	7.4	7.4	57	-4.6	3	12	270	0.00	29.916 
20:10	7.4	7.4	7.4	56	-5.0	3	12	270	0.00	29.916 
20:15	7.2	7.2	7.2	56	-5.2	2	6	270	0.00	29.928 
20:20	7.2	-0.6	7.2	55	-5.5	4	12	270	0.00	29.928 
20:25	7.2	7.2	7.2	54	-5.9	3	14	270	0.00	29.928 
20:30	7.0	7.0	7.0	55	-5.7	2	9	270	0.00	29.929 
20:35	7.0	7.0	7.0	55	-5.7	2	8	270	0.00	29.929 
20:40	6.9	6.9	6.9	55	-5.8	3	13	270	0.00	29.929 
20:45	6.9	6.9	6.9	55	-5.8	3	10	270	0.00	29.933 
20:50	6.9	6.9	6.9	56	-5.4	2	9	270	0.00	29.933 
20:55	6.7	6.7	6.7	56	-5.6	1	4	270	0.00	29.933 
21:00	6.7	6.7	6.7	56	-5.6	2	7	270	0.00	29.938 
21:05	6.5	6.5	6.5	57	-5.4	1	4	270	0.00	29.938 
21:10	6.5	6.5	6.5	57	-5.4	2	7	270	0.00	29.938 
21:15	6.5	6.5	6.5	57	-5.4	2	7	270	0.00	29.941 
21:20	6.5	6.5	6.5	57	-5.4	2	9	270	0.00	29.941 
21:25	6.5	6.5	6.5	58	-5.1	1	6	248	0.00	29.941 
21:30	6.3	6.3	6.3	58	-5.3	2	10	248	0.00	29.940 
21:35	6.5	6.5	6.5	58	-5.1	2	5	270	0.00	29.940 
21:40	6.3	6.3	6.3	58	-5.3	1	6	270	0.00	29.940 
21:45	6.3	6.3	6.3	58	-5.3	1	5	270	0.00	29.945 
21:50	6.3	6.3	6.3	58	-5.3	2	7	248	0.00	29.945 
21:55	6.1	6.1	6.1	58	-5.5	2	6	270	0.00	29.945 
22:00	6.1	6.1	6.1	58	-5.5	2	7	270	0.00	29.946 
22:05	6.3	6.3	6.3	58	-5.3	2	7	270	0.00	29.946 
22:10	6.1	6.1	6.1	59	-5.1	2	8	270	0.00	29.946 
22:15	6.1	6.1	6.1	59	-5.1	1	7	270	0.00	29.946 
22:20	6.0	6.0	6.0	59	-5.2	1	6	270	0.00	29.946 
22:25	5.8	5.8	5.8	59	-5.4	1	3	270	0.00	29.946 
22:30	5.8	5.8	5.8	59	-5.4	1	5	270	0.00	29.945 
22:35	5.8	5.8	5.8	59	-5.4	1	7	248	0.00	29.945 
22:40	5.8	5.8	5.8	59	-5.4	1	4	248	0.00	29.945 
22:45	5.6	5.6	5.6	60	-5.2	1	5	248	0.00	29.945 
22:50	5.6	5.6	5.6	60	-5.2	1	3	270	0.00	29.945 
22:55	5.6	5.6	5.6	60	-5.2	1	4	248	0.00	29.945 
23:00	5.8	5.8	5.8	59	-5.4	2	6	248	0.00	29.948 
23:05	5.8	5.8	5.8	59	-5.4	2	5	248	0.00	29.948 
23:10	5.8	5.8	5.8	59	-5.4	2	7	248	0.00	29.948 
23:15	5.8	5.8	5.8	59	-5.4	2	8	248	0.00	29.958 
23:20	5.8	5.8	5.8	59	-5.4	1	4	248	0.00	29.958 
23:25	5.8	5.8	5.8	59	-5.4	1	4	248	0.00	29.958 
23:30	5.8	5.8	5.8	59	-5.4	1	3	248	0.00	29.959 
23:35	5.8	5.8	5.8	59	-5.4	1	4	248	0.00	29.959 
23:40	5.8	5.8	5.8	59	-5.4	1	4	248	0.00	29.959 
23:45	5.8	5.8	5.8	59	-5.4	1	4	248	0.00	29.950 
23:50	5.8	5.8	5.8	59	-5.4	2	5	248	0.00	29.950 
23:55	6.0	6.0	6.0	59	-5.2	1	4	248	0.00	29.950 

CoCoRaHS
IN-AL-39
A2 Web Hosting
Creative Commons License
GoDaddy
Look for:

loaded 2017-12-13 10:10:17 • last modified 2010-11-18 10:43:29
Privacy PolicyDisclaimer
• wx.awcolley.com is powered by PmWiki v.2002016 •
• all content (unless otherwise noted) © 2017 A W Colley